createdAt,value
2024-03-10T00:01:10.752Z,47.20
2024-03-10T00:03:41.757Z,47.30
2024-03-10T00:06:10.829Z,47.30
2024-03-10T00:08:43.808Z,47.30
2024-03-10T00:11:12.628Z,47.20
2024-03-10T00:13:41.416Z,47.20
2024-03-10T00:16:10.542Z,47.10
2024-03-10T00:18:39.395Z,47.20
2024-03-10T00:21:08.626Z,47.20
2024-03-10T00:23:42.061Z,47.30
2024-03-10T00:26:10.861Z,47.20
2024-03-10T00:28:39.525Z,47.10
2024-03-10T00:31:10.159Z,47.00
2024-03-10T00:33:39.351Z,47.00
2024-03-10T00:36:08.904Z,46.90
2024-03-10T00:38:37.973Z,46.80
2024-03-10T00:41:08.088Z,46.80
2024-03-10T00:43:36.744Z,46.70
2024-03-10T00:46:06.137Z,46.80
2024-03-10T00:48:34.850Z,46.90
2024-03-10T00:51:03.501Z,47.00
2024-03-10T00:53:32.150Z,46.90
2024-03-10T00:56:00.935Z,46.90
2024-03-10T00:58:31.150Z,46.90
2024-03-10T01:01:00.023Z,47.00
2024-03-10T01:03:28.736Z,47.00
2024-03-10T01:05:57.379Z,47.10
2024-03-10T01:08:26.593Z,47.00
2024-03-10T01:10:56.091Z,47.10
2024-03-10T01:13:24.892Z,47.10
2024-03-10T01:15:55.372Z,47.20
2024-03-10T01:18:24.191Z,47.20
2024-03-10T01:20:52.862Z,47.20
2024-03-10T01:23:21.717Z,47.20
2024-03-10T01:25:50.437Z,47.20
2024-03-10T01:28:19.239Z,47.20
2024-03-10T01:30:48.132Z,47.20
2024-03-10T01:33:18.363Z,47.20
2024-03-10T01:35:47.150Z,47.20
2024-03-10T01:38:15.966Z,47.20
2024-03-10T01:40:44.783Z,47.30
2024-03-10T01:43:13.446Z,47.30
2024-03-10T01:45:42.141Z,47.30
2024-03-10T01:48:11.133Z,47.30
2024-03-10T01:50:41.349Z,47.40
2024-03-10T01:53:10.737Z,47.40
2024-03-10T01:55:39.906Z,47.40
2024-03-10T01:58:08.668Z,47.40
2024-03-10T02:00:39.492Z,47.30
2024-03-10T02:03:09.570Z,47.40
2024-03-10T02:05:38.420Z,47.40
2024-03-10T02:08:08.709Z,47.50
2024-03-10T02:10:37.392Z,47.50
2024-03-10T02:13:06.191Z,48.00
2024-03-10T02:15:34.851Z,47.40
2024-03-10T02:18:03.661Z,47.40
2024-03-10T02:20:33.492Z,47.50
2024-03-10T02:23:02.711Z,47.50
2024-03-10T02:25:40.995Z,47.50
2024-03-10T02:28:21.615Z,47.60
2024-03-10T02:30:57.430Z,47.50
2024-03-10T02:33:44.090Z,47.60
2024-03-10T02:36:26.630Z,47.60
2024-03-10T02:39:12.421Z,47.70
2024-03-10T02:41:59.582Z,47.70
2024-03-10T02:44:42.089Z,47.70
2024-03-10T02:47:18.307Z,47.70
2024-03-10T02:49:48.090Z,47.70
2024-03-10T02:52:16.926Z,47.70
2024-03-10T02:54:45.557Z,47.80
2024-03-10T02:57:15.597Z,47.80
2024-03-10T02:59:44.398Z,47.80
2024-03-10T03:02:13.146Z,47.90
2024-03-10T03:04:41.814Z,47.90
2024-03-10T03:07:10.481Z,47.90
2024-03-10T03:09:39.449Z,47.90
2024-03-10T03:12:08.327Z,48.00
2024-03-10T03:14:38.636Z,47.90
2024-03-10T03:17:07.405Z,48.00
2024-03-10T03:19:37.648Z,48.10
2024-03-10T03:22:08.097Z,48.10
2024-03-10T03:24:37.616Z,48.20
2024-03-10T03:27:06.587Z,48.20
2024-03-10T03:29:36.416Z,48.20
2024-03-10T03:32:07.051Z,48.20
2024-03-10T03:34:35.886Z,48.20
2024-03-10T03:37:04.584Z,48.30
2024-03-10T03:39:36.718Z,48.30
2024-03-10T03:42:05.624Z,48.30
2024-03-10T03:44:34.390Z,48.40
2024-03-10T03:47:03.190Z,48.40
2024-03-10T03:49:33.256Z,48.40
2024-03-10T03:52:02.079Z,48.40
2024-03-10T03:54:32.759Z,48.50
2024-03-10T03:57:01.541Z,48.40
2024-03-10T03:59:30.237Z,48.50
2024-03-10T04:01:59.691Z,48.50
2024-03-10T04:04:29.230Z,49.10
2024-03-10T04:06:59.314Z,48.50
2024-03-10T04:09:28.336Z,48.50
2024-03-10T04:11:57.064Z,48.50
2024-03-10T04:14:27.922Z,48.50
2024-03-10T04:16:57.042Z,48.60
2024-03-10T04:19:25.754Z,48.60
2024-03-10T04:21:55.677Z,48.60
2024-03-10T04:24:25.773Z,48.60
2024-03-10T04:26:54.508Z,48.60
2024-03-10T04:29:23.262Z,48.60
2024-03-10T04:31:52.029Z,48.70
2024-03-10T04:34:21.010Z,48.60
2024-03-10T04:36:49.665Z,48.70
2024-03-10T04:39:18.329Z,48.70
2024-03-10T04:41:48.711Z,48.70
2024-03-10T04:44:18.289Z,48.70
2024-03-10T04:46:47.240Z,48.70
2024-03-10T04:49:18.906Z,48.80
2024-03-10T04:51:47.666Z,48.70
2024-03-10T04:54:16.327Z,48.80
2024-03-10T04:56:48.957Z,48.80
2024-03-10T04:59:19.393Z,48.80
2024-03-10T05:01:48.279Z,48.70
2024-03-10T05:04:17.011Z,48.80
2024-03-10T05:06:45.651Z,48.70
2024-03-10T05:09:14.316Z,48.70
2024-03-10T05:11:43.033Z,48.80
2024-03-10T05:14:14.178Z,48.80
2024-03-10T05:16:44.819Z,48.80
2024-03-10T05:19:13.592Z,49.40
2024-03-10T05:26:45.218Z,89.50
2024-03-10T05:34:14.319Z,91.20
2024-03-10T05:39:13.146Z,78.90
2024-03-10T05:41:41.924Z,60.20
2024-03-10T05:44:10.996Z,64.30
2024-03-10T05:46:41.314Z,69.20
2024-03-10T05:49:10.420Z,65.70
2024-03-10T05:51:39.159Z,69.10
2024-03-10T05:54:07.857Z,67.80
2024-03-10T05:56:36.503Z,65.30
2024-03-10T05:59:05.361Z,66.10
2024-03-10T06:01:34.959Z,76.90
2024-03-10T06:04:06.159Z,63.60
2024-03-10T06:06:35.228Z,73.70
2024-03-10T06:09:06.433Z,64.40
2024-03-10T06:11:35.185Z,65.10
2024-03-10T06:14:04.996Z,66.00
2024-03-10T06:16:33.736Z,62.70
2024-03-10T06:19:19.768Z,52.20
2024-03-10T06:22:07.122Z,49.20
2024-03-10T06:24:53.383Z,49.20
2024-03-10T06:27:21.995Z,49.10
2024-03-10T06:29:50.656Z,49.10
2024-03-10T06:32:19.352Z,49.10
2024-03-10T06:34:48.090Z,49.10
2024-03-10T06:37:20.854Z,49.00
2024-03-10T06:39:49.624Z,49.10
2024-03-10T06:42:18.469Z,49.10
2024-03-10T06:44:47.296Z,49.00
2024-03-10T06:47:15.995Z,49.10
2024-03-10T06:49:44.647Z,49.00
2024-03-10T06:52:13.292Z,49.00
2024-03-10T06:54:43.358Z,49.00
2024-03-10T06:57:12.076Z,49.00
2024-03-10T06:59:40.838Z,49.00
2024-03-10T07:02:13.425Z,49.10
2024-03-10T07:04:46.787Z,49.10
2024-03-10T07:07:16.040Z,49.10
2024-03-10T07:09:46.245Z,49.10
2024-03-10T07:12:15.165Z,49.10
2024-03-10T07:14:46.212Z,49.20
2024-03-10T07:17:16.767Z,49.10
2024-03-10T07:19:47.098Z,49.10
2024-03-10T07:22:15.797Z,49.10
2024-03-10T07:24:45.812Z,49.10
2024-03-10T07:27:15.052Z,49.20
2024-03-10T07:29:45.904Z,49.10
2024-03-10T07:32:14.661Z,49.20
2024-03-10T07:34:47.150Z,49.10
2024-03-10T07:37:17.250Z,49.10
2024-03-10T07:39:47.291Z,49.20
2024-03-10T07:42:16.842Z,49.20
2024-03-10T07:44:45.517Z,49.20
2024-03-10T07:47:14.831Z,49.20
2024-03-10T07:49:43.544Z,49.20
2024-03-10T07:52:12.666Z,49.20
2024-03-10T07:54:43.227Z,49.20
2024-03-10T07:57:14.222Z,49.20
2024-03-10T07:59:42.892Z,49.20
2024-03-10T08:02:11.580Z,49.20
2024-03-10T08:04:41.819Z,49.20
2024-03-10T08:07:11.409Z,49.30
2024-03-10T08:09:39.169Z,49.30
2024-03-10T08:12:09.279Z,49.20
2024-03-10T08:14:40.161Z,49.30
2024-03-10T08:17:09.035Z,49.30
2024-03-10T08:19:37.920Z,49.20
2024-03-10T08:22:06.972Z,49.20
2024-03-10T08:24:35.643Z,49.30
2024-03-10T08:27:04.459Z,49.20
2024-03-10T08:29:33.150Z,49.30
2024-03-10T08:32:05.364Z,49.30
2024-03-10T08:34:34.249Z,49.30
2024-03-10T08:37:04.159Z,49.30
2024-03-10T08:39:32.845Z,49.30
2024-03-10T08:42:01.494Z,49.30
2024-03-10T08:44:30.267Z,49.30
2024-03-10T08:46:59.202Z,49.30
2024-03-10T08:49:29.250Z,49.30
2024-03-10T08:51:58.034Z,49.30
2024-03-10T08:54:26.779Z,49.30
2024-03-10T08:56:55.473Z,49.30
2024-03-10T08:59:24.258Z,49.30
2024-03-10T09:01:53.229Z,49.30
2024-03-10T09:04:22.596Z,49.30
2024-03-10T09:06:53.356Z,49.30
2024-03-10T09:09:23.628Z,49.30
2024-03-10T09:11:53.181Z,49.30
2024-03-10T09:14:22.075Z,49.30
2024-03-10T09:16:51.257Z,49.30
2024-03-10T09:19:19.983Z,49.40
2024-03-10T09:21:50.431Z,49.30
2024-03-10T09:24:21.340Z,49.30
2024-03-10T09:26:49.991Z,49.40
2024-03-10T09:29:22.427Z,49.40
2024-03-10T09:31:51.804Z,49.40
2024-03-10T09:34:21.468Z,49.40
2024-03-10T09:36:50.569Z,49.40
2024-03-10T09:39:24.131Z,49.40
2024-03-10T09:41:53.868Z,49.40
2024-03-10T09:44:24.158Z,49.40
2024-03-10T09:46:53.988Z,49.40
2024-03-10T09:49:23.061Z,49.40
2024-03-10T09:51:51.981Z,49.40
2024-03-10T09:54:23.120Z,49.50
2024-03-10T09:56:52.399Z,49.50
2024-03-10T09:59:29.568Z,49.40
2024-03-10T10:02:00.816Z,49.50
2024-03-10T10:04:37.410Z,49.50
2024-03-10T10:07:10.680Z,49.40
2024-03-10T10:09:40.872Z,49.40
2024-03-10T10:12:12.434Z,49.50
2024-03-10T10:14:46.036Z,49.40
2024-03-10T10:17:18.964Z,49.50
2024-03-10T10:19:47.858Z,49.50
2024-03-10T10:22:16.697Z,49.50
2024-03-10T10:25:01.671Z,49.50
2024-03-10T10:27:32.160Z,49.50
2024-03-10T10:30:00.814Z,49.50
2024-03-10T10:32:29.926Z,49.50
2024-03-10T10:34:59.025Z,49.50
2024-03-10T10:37:35.339Z,49.50
2024-03-10T10:40:12.523Z,49.50
2024-03-10T10:42:50.780Z,49.60
2024-03-10T10:45:26.261Z,49.60
2024-03-10T10:47:55.989Z,49.50
2024-03-10T10:50:32.975Z,49.50
2024-03-10T10:53:02.374Z,49.50
2024-03-10T10:55:34.108Z,49.50
2024-03-10T10:58:07.065Z,49.50
2024-03-10T11:00:36.144Z,49.60
2024-03-10T11:03:09.321Z,49.60
2024-03-10T11:05:38.763Z,49.60
2024-03-10T11:08:07.696Z,49.60
2024-03-10T11:10:48.620Z,49.60
2024-03-10T11:13:19.069Z,49.60
2024-03-10T11:15:47.735Z,49.60
2024-03-10T11:18:30.528Z,49.60
2024-03-10T11:21:00.748Z,49.60
2024-03-10T11:23:37.839Z,49.60
2024-03-10T11:26:13.879Z,49.60
2024-03-10T11:28:51.289Z,49.60
2024-03-10T11:31:39.106Z,49.60
2024-03-10T11:34:11.293Z,49.70
2024-03-10T11:36:41.864Z,49.70
2024-03-10T11:39:10.649Z,49.70
2024-03-10T11:41:41.552Z,49.70
2024-03-10T11:44:12.955Z,49.70
2024-03-10T11:46:41.815Z,49.60
2024-03-10T11:49:13.033Z,49.60
2024-03-10T11:51:42.088Z,49.70
2024-03-10T11:54:14.499Z,49.70
2024-03-10T11:56:46.554Z,49.70
2024-03-10T11:59:15.939Z,49.70
2024-03-10T12:01:45.713Z,49.80
2024-03-10T12:04:14.411Z,49.80
2024-03-10T12:06:43.548Z,49.80
2024-03-10T12:09:13.811Z,49.90
2024-03-10T12:11:45.193Z,49.90
2024-03-10T12:14:14.477Z,49.90
2024-03-10T12:16:49.407Z,49.90
2024-03-10T12:19:20.619Z,50.00
2024-03-10T12:21:49.445Z,49.90
2024-03-10T12:24:19.162Z,49.90
2024-03-10T12:26:49.269Z,49.90
2024-03-10T12:29:21.830Z,49.90
2024-03-10T12:31:53.255Z,50.00
2024-03-10T12:34:23.817Z,49.90
2024-03-10T12:36:52.610Z,50.00
2024-03-10T12:39:24.333Z,50.00
2024-03-10T12:41:54.525Z,50.00
2024-03-10T12:44:23.203Z,50.00
2024-03-10T12:46:52.165Z,50.00
2024-03-10T12:49:21.751Z,49.90
2024-03-10T12:51:50.390Z,49.90
2024-03-10T12:54:19.064Z,50.00
2024-03-10T12:56:47.760Z,50.00
2024-03-10T12:59:17.990Z,49.90
2024-03-10T13:01:46.654Z,50.00
2024-03-10T13:04:16.299Z,50.00
2024-03-10T13:06:45.974Z,50.00
2024-03-10T13:09:17.318Z,50.00
2024-03-10T13:11:46.060Z,50.10
2024-03-10T13:14:15.744Z,50.00
2024-03-10T13:16:46.430Z,50.10
2024-03-10T13:19:15.153Z,50.00
2024-03-10T13:21:44.249Z,50.20
2024-03-10T13:24:12.921Z,50.00
2024-03-10T13:26:43.450Z,50.20
2024-03-10T13:29:13.432Z,50.10
2024-03-10T13:31:42.193Z,50.00
2024-03-10T13:34:12.221Z,50.10
2024-03-10T13:36:40.869Z,50.10
2024-03-10T13:39:11.735Z,50.20
2024-03-10T13:41:40.536Z,50.10
2024-03-10T13:44:09.228Z,50.00
2024-03-10T13:46:38.863Z,50.10
2024-03-10T13:49:09.187Z,50.00
2024-03-10T13:51:39.541Z,50.10
2024-03-10T13:54:08.348Z,50.20
2024-03-10T13:56:37.073Z,50.30
2024-03-10T13:59:05.774Z,50.10
2024-03-10T14:01:35.075Z,50.10
2024-03-10T14:04:04.292Z,50.10
2024-03-10T14:06:33.461Z,50.10
2024-03-10T14:09:04.093Z,50.20
2024-03-10T14:11:33.774Z,50.10
2024-03-10T14:14:02.630Z,50.20
2024-03-10T14:16:32.986Z,50.20
2024-03-10T14:19:02.705Z,50.30
2024-03-10T14:21:31.597Z,50.30
2024-03-10T14:24:01.356Z,50.30
2024-03-10T14:26:31.421Z,50.30
2024-03-10T14:29:00.188Z,50.30
2024-03-10T14:31:30.764Z,50.30
2024-03-10T14:33:59.544Z,50.30
2024-03-10T14:36:29.925Z,50.30
2024-03-10T14:38:58.676Z,50.30
2024-03-10T14:41:27.997Z,50.30
2024-03-10T14:43:58.428Z,50.30
2024-03-10T14:46:27.097Z,50.30
2024-03-10T14:48:55.760Z,50.30
2024-03-10T14:51:26.826Z,50.20
2024-03-10T14:53:57.356Z,50.20
2024-03-10T14:56:27.618Z,50.20
2024-03-10T14:58:58.345Z,50.20
2024-03-10T15:01:29.934Z,50.20
2024-03-10T15:03:59.976Z,50.20
2024-03-10T15:06:28.638Z,50.30
2024-03-10T15:08:58.727Z,50.30
2024-03-10T15:11:27.593Z,50.30
2024-03-10T15:13:57.686Z,50.30
2024-03-10T15:16:26.734Z,50.20
2024-03-10T15:18:55.756Z,50.20
2024-03-10T15:21:24.449Z,50.30
2024-03-10T15:23:55.532Z,50.30
2024-03-10T15:26:24.861Z,50.30
2024-03-10T15:28:53.913Z,50.30
2024-03-10T15:31:24.065Z,50.30
2024-03-10T15:33:52.725Z,50.20
2024-03-10T15:36:21.693Z,50.30
2024-03-10T15:38:50.409Z,50.30
2024-03-10T15:41:19.209Z,50.30
2024-03-10T15:43:47.887Z,50.30
2024-03-10T15:46:16.686Z,50.30
2024-03-10T15:48:49.004Z,50.30
2024-03-10T15:51:17.697Z,50.30
2024-03-10T15:53:46.345Z,50.30
2024-03-10T15:56:15.085Z,50.30
2024-03-10T15:58:45.210Z,50.30
2024-03-10T16:01:17.176Z,50.30
2024-03-10T16:03:53.721Z,50.30
2024-03-10T16:06:22.778Z,50.30
2024-03-10T16:08:51.642Z,50.30
2024-03-10T16:11:20.352Z,50.30
2024-03-10T16:13:53.241Z,50.30
2024-03-10T16:16:23.224Z,50.20
2024-03-10T16:18:54.961Z,50.20
2024-03-10T16:21:27.430Z,50.30
2024-03-10T16:23:56.135Z,50.30
2024-03-10T16:26:24.989Z,50.40
2024-03-10T16:28:53.652Z,50.40
2024-03-10T16:31:22.566Z,50.40
2024-03-10T16:33:52.582Z,50.50
2024-03-10T16:36:21.227Z,50.50
2024-03-10T16:38:50.556Z,50.40
2024-03-10T16:41:19.397Z,50.30
2024-03-10T16:43:50.406Z,50.30
2024-03-10T16:46:20.193Z,50.70
2024-03-10T16:48:49.207Z,50.10
2024-03-10T16:51:20.499Z,49.90
2024-03-10T16:53:49.159Z,50.00
2024-03-10T16:56:17.133Z,50.60
2024-03-10T16:58:46.654Z,50.00
2024-03-10T17:01:15.573Z,49.80
2024-03-10T17:03:44.321Z,49.80
2024-03-10T17:06:13.181Z,49.70
2024-03-10T17:08:43.299Z,50.60
2024-03-10T17:11:12.041Z,50.10
2024-03-10T17:13:40.735Z,50.60
2024-03-10T17:16:09.429Z,50.00
2024-03-10T17:18:38.313Z,49.80
2024-03-10T17:21:07.220Z,49.60
2024-03-10T17:23:35.995Z,49.60
2024-03-10T17:26:06.326Z,49.60
2024-03-10T17:28:35.108Z,49.60
2024-03-10T17:31:03.858Z,49.50
2024-03-10T17:33:32.535Z,49.50
2024-03-10T17:36:01.226Z,49.60
2024-03-10T17:38:30.011Z,49.60
2024-03-10T17:40:58.757Z,49.60
2024-03-10T17:43:28.813Z,49.70
2024-03-10T17:45:57.469Z,49.80
2024-03-10T17:48:26.139Z,49.80
2024-03-10T17:50:54.951Z,49.80
2024-03-10T17:53:24.015Z,49.90
2024-03-10T17:55:52.688Z,50.00
2024-03-10T17:58:21.322Z,50.00
2024-03-10T18:00:51.604Z,50.00
2024-03-10T18:03:20.320Z,50.00
2024-03-10T18:05:49.528Z,50.00
2024-03-10T18:08:18.288Z,50.00
2024-03-10T18:10:48.194Z,50.00
2024-03-10T18:13:17.169Z,51.70
2024-03-10T18:15:48.217Z,52.70
2024-03-10T18:20:47.442Z,81.00
2024-03-10T18:23:17.853Z,77.90
2024-03-10T18:25:46.955Z,74.80
2024-03-10T18:28:17.443Z,75.30
2024-03-10T18:30:47.085Z,81.60
2024-03-10T18:35:47.397Z,85.90
2024-03-10T18:38:17.355Z,85.40
2024-03-10T18:40:49.677Z,91.70
2024-03-10T18:50:54.565Z,93.20
2024-03-10T18:53:29.085Z,91.70
2024-03-10T18:55:57.923Z,92.00
2024-03-10T18:58:28.079Z,93.20
2024-03-10T19:10:57.475Z,94.70
2024-03-10T19:13:27.492Z,51.10
2024-03-10T19:18:26.734Z,50.40
2024-03-10T19:20:58.650Z,50.90
2024-03-10T19:23:27.871Z,50.70
2024-03-10T19:25:58.424Z,50.90
2024-03-10T19:28:27.323Z,51.30
2024-03-10T19:30:58.758Z,51.10
2024-03-10T19:33:27.578Z,50.80
2024-03-10T19:36:00.228Z,50.80
2024-03-10T19:38:28.944Z,50.80
2024-03-10T19:40:57.673Z,51.10
2024-03-10T19:43:27.008Z,50.90
2024-03-10T19:45:57.505Z,51.10
2024-03-10T19:48:26.366Z,51.00
2024-03-10T19:50:55.524Z,50.90
2024-03-10T19:53:28.212Z,51.60
2024-03-10T19:55:57.775Z,50.70
2024-03-10T19:58:27.617Z,50.60
2024-03-10T20:00:56.793Z,50.60
2024-03-10T20:03:25.585Z,50.50
2024-03-10T20:05:55.577Z,50.80
2024-03-10T20:08:26.214Z,50.60
2024-03-10T20:10:56.423Z,50.60
2024-03-10T20:13:25.301Z,50.60
2024-03-10T20:15:54.789Z,50.80
2024-03-10T20:18:24.148Z,50.80
2024-03-10T20:20:53.154Z,50.50
2024-03-10T20:23:23.121Z,50.70
2024-03-10T20:25:54.956Z,50.80
2024-03-10T20:28:23.987Z,50.70
2024-03-10T20:30:52.683Z,50.90
2024-03-10T20:33:22.668Z,50.70
2024-03-10T20:35:51.786Z,50.80
2024-03-10T20:38:20.642Z,50.80
2024-03-10T20:40:50.387Z,50.90
2024-03-10T20:43:22.309Z,50.80
2024-03-10T20:45:59.129Z,50.70
2024-03-10T20:48:31.539Z,50.90
2024-03-10T20:51:00.797Z,50.90
2024-03-10T20:53:29.592Z,50.80
2024-03-10T20:55:59.094Z,51.40
2024-03-10T20:58:29.582Z,50.90
2024-03-10T21:00:58.278Z,50.80
2024-03-10T21:03:27.049Z,50.90
2024-03-10T21:05:56.058Z,50.80
2024-03-10T21:08:24.834Z,51.00
2024-03-10T21:10:53.633Z,51.00
2024-03-10T21:13:22.373Z,51.00
2024-03-10T21:15:52.432Z,51.00
2024-03-10T21:18:21.516Z,51.00
2024-03-10T21:20:50.617Z,50.90
2024-03-10T21:23:20.059Z,50.80
2024-03-10T21:25:49.520Z,50.80
2024-03-10T21:28:18.293Z,50.90
2024-03-10T21:30:47.129Z,51.00
2024-03-10T21:33:17.420Z,51.20
2024-03-10T21:35:47.297Z,51.10
2024-03-10T21:38:16.097Z,51.10
2024-03-10T21:40:44.779Z,51.10
2024-03-10T21:43:14.572Z,50.90
2024-03-10T21:45:45.503Z,50.80
2024-03-10T21:48:14.479Z,50.80
2024-03-10T21:50:44.824Z,50.80
2024-03-10T21:53:14.656Z,50.80
2024-03-10T21:55:43.581Z,50.80
2024-03-10T21:58:12.574Z,50.80
2024-03-10T22:00:41.440Z,50.80
2024-03-10T22:03:10.852Z,50.90
2024-03-10T22:05:40.235Z,50.90
2024-03-10T22:08:10.565Z,50.90
2024-03-10T22:10:39.303Z,50.90
2024-03-10T22:13:07.935Z,51.00
2024-03-10T22:15:35.900Z,50.90
2024-03-10T22:18:04.778Z,51.00
2024-03-10T22:20:34.147Z,51.10
2024-03-10T22:23:02.981Z,51.10
2024-03-10T22:25:33.118Z,51.10
2024-03-10T22:28:01.761Z,51.10
2024-03-10T22:30:31.229Z,51.70
2024-03-10T22:33:00.803Z,51.30
2024-03-10T22:35:29.970Z,51.30
2024-03-10T22:37:59.474Z,51.40
2024-03-10T22:40:30.769Z,51.40
2024-03-10T22:43:00.812Z,51.40
2024-03-10T22:45:32.730Z,51.40
2024-03-10T22:48:05.370Z,51.40
2024-03-10T22:50:36.151Z,51.30
2024-03-10T22:53:07.130Z,51.40
2024-03-10T22:55:36.750Z,51.40
2024-03-10T22:58:06.874Z,51.40
2024-03-10T23:00:37.599Z,51.30
2024-03-10T23:03:11.472Z,51.40
2024-03-10T23:05:42.175Z,51.30
2024-03-10T23:08:14.028Z,51.40
2024-03-10T23:10:48.059Z,51.30
2024-03-10T23:13:21.045Z,51.20
2024-03-10T23:15:50.266Z,51.30
2024-03-10T23:18:25.413Z,51.30
2024-03-10T23:20:56.940Z,51.30
2024-03-10T23:23:26.147Z,51.30
2024-03-10T23:25:55.898Z,51.40
2024-03-10T23:28:25.993Z,51.40
2024-03-10T23:30:55.572Z,51.40
2024-03-10T23:33:24.379Z,52.00
2024-03-10T23:35:54.408Z,51.30
2024-03-10T23:38:24.697Z,51.40
2024-03-10T23:40:54.209Z,51.50
2024-03-10T23:43:22.934Z,51.50
2024-03-10T23:45:53.724Z,51.60
2024-03-10T23:48:23.341Z,51.50
2024-03-10T23:50:52.698Z,51.60
2024-03-10T23:53:21.953Z,51.50
2024-03-10T23:56:01.598Z,51.50
2024-03-10T23:58:34.082Z,51.50
